createdAt,value
2018-02-25T00:01:15.874Z,6.63
2018-02-25T00:03:44.376Z,6.63
2018-02-25T00:06:12.838Z,6.65
2018-02-25T00:08:41.323Z,6.62
2018-02-25T00:11:09.818Z,6.62
2018-02-25T00:13:38.324Z,6.56
2018-02-25T00:16:06.836Z,6.55
2018-02-25T00:18:35.318Z,6.56
2018-02-25T00:21:03.852Z,6.44
2018-02-25T00:23:32.320Z,6.33
2018-02-25T00:26:00.778Z,6.44
2018-02-25T00:28:29.276Z,6.47
2018-02-25T00:30:57.729Z,6.44
2018-02-25T00:33:26.235Z,6.07
2018-02-25T00:35:54.733Z,6.10
2018-02-25T00:38:23.198Z,6.11
2018-02-25T00:40:51.700Z,6.31
2018-02-25T00:43:20.157Z,6.23
2018-02-25T00:45:48.675Z,6.23
2018-02-25T00:48:17.139Z,6.37
2018-02-25T00:50:45.641Z,6.30
2018-02-25T00:53:14.122Z,6.43
2018-02-25T00:55:42.628Z,6.43
2018-02-25T00:58:11.110Z,6.45
2018-02-25T01:00:39.629Z,6.40
2018-02-25T01:03:08.138Z,6.47
2018-02-25T01:05:36.634Z,6.50
2018-02-25T01:08:05.138Z,6.48
2018-02-25T01:10:33.775Z,6.49
2018-02-25T01:13:02.270Z,6.37
2018-02-25T01:15:30.801Z,6.29
2018-02-25T01:17:59.266Z,6.39
2018-02-25T01:20:27.741Z,6.38
2018-02-25T01:22:56.234Z,6.44
2018-02-25T01:25:24.691Z,6.46
2018-02-25T01:27:53.209Z,6.48
2018-02-25T01:30:21.670Z,6.46
2018-02-25T01:32:50.175Z,6.47
2018-02-25T01:35:18.656Z,6.47
2018-02-25T01:37:47.153Z,6.33
2018-02-25T01:40:15.621Z,6.35
2018-02-25T01:42:44.114Z,6.20
2018-02-25T01:45:12.586Z,5.99
2018-02-25T01:47:41.073Z,5.92
2018-02-25T01:50:09.527Z,5.81
2018-02-25T01:52:38.036Z,5.84
2018-02-25T01:55:06.547Z,5.87
2018-02-25T01:57:35.004Z,5.70
2018-02-25T02:00:03.509Z,5.56
2018-02-25T02:02:32.042Z,5.72
2018-02-25T02:05:00.516Z,5.58
2018-02-25T02:07:29.030Z,5.60
2018-02-25T02:09:57.538Z,5.55
2018-02-25T02:12:25.979Z,5.50
2018-02-25T02:14:54.502Z,5.57
2018-02-25T02:17:23.017Z,5.35
2018-02-25T02:19:51.501Z,5.56
2018-02-25T02:22:20.060Z,5.34
2018-02-25T02:24:48.526Z,5.31
2018-02-25T02:27:16.996Z,5.24
2018-02-25T02:29:45.498Z,5.37
2018-02-25T02:32:13.978Z,5.32
2018-02-25T02:34:42.441Z,5.11
2018-02-25T02:37:10.946Z,5.15
2018-02-25T02:39:39.442Z,5.26
2018-02-25T02:42:07.912Z,5.09
2018-02-25T02:44:36.422Z,4.80
2018-02-25T02:47:04.888Z,4.89
2018-02-25T02:49:33.378Z,4.81
2018-02-25T02:52:01.878Z,4.77
2018-02-25T02:54:30.371Z,4.82
2018-02-25T02:56:58.861Z,4.61
2018-02-25T02:59:27.365Z,4.70
2018-02-25T03:01:55.939Z,4.64
2018-02-25T03:04:24.377Z,4.63
2018-02-25T03:06:52.990Z,4.72
2018-02-25T03:09:21.454Z,4.70
2018-02-25T03:11:49.943Z,4.65
2018-02-25T03:14:18.401Z,4.60
2018-02-25T03:16:46.902Z,4.52
2018-02-25T03:19:15.363Z,4.66
2018-02-25T03:21:43.853Z,4.64
2018-02-25T03:24:12.383Z,4.72
2018-02-25T03:26:40.912Z,4.68
2018-02-25T03:29:09.435Z,4.61
2018-02-25T03:31:37.898Z,4.43
2018-02-25T03:34:06.395Z,4.36
2018-02-25T03:36:34.890Z,4.43
2018-02-25T03:39:03.390Z,4.40
2018-02-25T03:41:31.926Z,4.51
2018-02-25T03:44:00.385Z,4.45
2018-02-25T03:46:28.919Z,4.24
2018-02-25T03:48:57.421Z,4.45
2018-02-25T03:51:25.922Z,4.35
2018-02-25T03:53:54.394Z,4.45
2018-02-25T03:56:22.854Z,4.33
2018-02-25T03:58:51.350Z,4.41
2018-02-25T04:01:19.812Z,4.36
2018-02-25T04:03:48.314Z,4.43
2018-02-25T04:06:16.782Z,4.41
2018-02-25T04:08:45.281Z,4.55
2018-02-25T04:11:13.747Z,4.23
2018-02-25T04:13:42.273Z,4.29
2018-02-25T04:16:10.719Z,4.33
2018-02-25T04:18:39.230Z,4.34
2018-02-25T04:21:07.719Z,4.30
2018-02-25T04:23:36.194Z,4.37
2018-02-25T04:26:04.676Z,4.28
2018-02-25T04:28:33.123Z,4.36
2018-02-25T04:31:01.618Z,4.35
2018-02-25T04:33:30.089Z,4.44
2018-02-25T04:35:58.581Z,4.30
2018-02-25T04:38:27.130Z,4.30
2018-02-25T04:40:55.661Z,4.07
2018-02-25T04:43:24.158Z,4.14
2018-02-25T04:45:52.618Z,3.96
2018-02-25T04:48:21.122Z,4.08
2018-02-25T04:50:49.642Z,4.04
2018-02-25T04:53:18.157Z,4.03
2018-02-25T04:55:46.669Z,4.09
2018-02-25T04:58:15.131Z,4.03
2018-02-25T05:00:43.598Z,3.96
2018-02-25T05:03:12.079Z,4.08
2018-02-25T05:05:40.576Z,4.08
2018-02-25T05:08:09.070Z,4.08
2018-02-25T05:10:37.596Z,4.09
2018-02-25T05:13:06.109Z,4.22
2018-02-25T05:15:34.597Z,4.29
2018-02-25T05:18:03.062Z,4.22
2018-02-25T05:20:31.561Z,4.05
2018-02-25T05:23:00.022Z,4.25
2018-02-25T05:25:28.546Z,4.20
2018-02-25T05:27:57.030Z,4.21
2018-02-25T05:30:25.486Z,4.33
2018-02-25T05:32:53.982Z,4.33
2018-02-25T05:35:22.429Z,4.26
2018-02-25T05:37:50.926Z,4.14
2018-02-25T05:40:19.427Z,4.24
2018-02-25T05:42:47.925Z,3.95
2018-02-25T05:45:16.390Z,4.04
2018-02-25T05:47:44.898Z,3.99
2018-02-25T05:50:13.362Z,4.11
2018-02-25T05:52:41.842Z,4.02
2018-02-25T05:55:10.333Z,4.02
2018-02-25T05:57:38.850Z,3.88
2018-02-25T06:00:07.350Z,3.84
2018-02-25T06:02:35.818Z,4.04
2018-02-25T06:05:04.367Z,4.19
2018-02-25T06:07:32.862Z,4.14
2018-02-25T06:10:01.368Z,4.20
2018-02-25T06:12:29.832Z,4.21
2018-02-25T06:14:58.334Z,4.29
2018-02-25T06:17:26.790Z,4.29
2018-02-25T06:19:55.316Z,4.31
2018-02-25T06:22:23.819Z,4.26
2018-02-25T06:24:52.321Z,4.15
2018-02-25T06:27:20.806Z,4.14
2018-02-25T06:29:49.343Z,4.34
2018-02-25T06:32:17.834Z,4.46
2018-02-25T06:34:46.322Z,4.53
2018-02-25T06:37:14.819Z,4.37
2018-02-25T06:39:43.269Z,4.63
2018-02-25T06:42:11.769Z,4.73
2018-02-25T06:44:40.242Z,4.80
2018-02-25T06:47:08.760Z,4.88
2018-02-25T06:49:37.226Z,4.73
2018-02-25T06:52:05.686Z,4.61
2018-02-25T06:54:34.204Z,4.45
2018-02-25T06:57:02.714Z,4.03
2018-02-25T06:59:31.230Z,3.41
2018-02-25T07:01:59.682Z,3.08
2018-02-25T07:04:28.204Z,2.90
2018-02-25T07:06:56.672Z,3.05
2018-02-25T07:09:25.160Z,3.47
2018-02-25T07:11:53.673Z,3.59
2018-02-25T07:14:22.126Z,3.72
2018-02-25T07:16:50.614Z,3.68
2018-02-25T07:19:19.103Z,3.76
2018-02-25T07:21:47.566Z,3.92
2018-02-25T07:24:16.063Z,3.99
2018-02-25T07:26:44.599Z,4.02
2018-02-25T07:29:13.034Z,3.89
2018-02-25T07:31:41.502Z,4.06
2018-02-25T07:34:10.008Z,4.13
2018-02-25T07:36:38.465Z,4.15
2018-02-25T07:39:06.953Z,4.23
2018-02-25T07:41:35.609Z,4.28
2018-02-25T07:44:04.127Z,4.24
2018-02-25T07:46:32.581Z,4.19
2018-02-25T07:49:01.087Z,4.16
2018-02-25T07:51:29.632Z,4.03
2018-02-25T07:53:58.110Z,3.84
2018-02-25T07:56:26.612Z,3.91
2018-02-25T07:58:55.074Z,3.89
2018-02-25T08:01:23.583Z,3.80
2018-02-25T08:03:52.037Z,3.85
2018-02-25T08:06:20.550Z,3.80
2018-02-25T08:08:49.054Z,3.59
2018-02-25T08:11:17.506Z,3.60
2018-02-25T08:13:46.006Z,3.48
2018-02-25T08:16:14.515Z,3.35
2018-02-25T08:18:43.009Z,3.04
2018-02-25T08:21:11.498Z,3.35
2018-02-25T08:23:39.950Z,3.50
2018-02-25T08:26:08.492Z,3.57
2018-02-25T08:28:37.025Z,3.39
2018-02-25T08:31:05.517Z,3.44
2018-02-25T08:33:33.978Z,3.62
2018-02-25T08:36:02.465Z,3.73
2018-02-25T08:38:30.922Z,3.43
2018-02-25T08:40:59.433Z,3.45
2018-02-25T08:43:27.934Z,3.58
2018-02-25T08:45:56.411Z,3.68
2018-02-25T08:48:24.914Z,3.68
2018-02-25T08:50:53.398Z,3.68
2018-02-25T08:53:21.859Z,3.66
2018-02-25T08:55:50.354Z,3.69
2018-02-25T08:58:18.810Z,3.50
2018-02-25T09:00:47.302Z,3.52
2018-02-25T09:03:15.768Z,3.61
2018-02-25T09:05:44.274Z,3.66
2018-02-25T09:08:12.782Z,3.65
2018-02-25T09:10:41.242Z,3.76
2018-02-25T09:13:09.702Z,3.42
2018-02-25T09:15:38.226Z,3.59
2018-02-25T09:18:06.671Z,3.68
2018-02-25T09:20:35.802Z,3.65
2018-02-25T09:23:04.262Z,3.68
2018-02-25T09:25:32.755Z,3.68
2018-02-25T09:28:01.276Z,3.66
2018-02-25T09:30:29.735Z,3.71
2018-02-25T09:32:58.194Z,3.64
2018-02-25T09:35:26.688Z,3.64
2018-02-25T09:37:55.230Z,3.71
2018-02-25T09:40:23.698Z,3.61
2018-02-25T09:42:52.162Z,3.71
2018-02-25T09:45:20.664Z,3.61
2018-02-25T09:47:49.197Z,3.56
2018-02-25T09:50:17.697Z,3.54
2018-02-25T09:52:46.158Z,3.45
2018-02-25T09:55:14.650Z,3.33
2018-02-25T09:57:43.106Z,3.35
2018-02-25T10:00:11.630Z,3.31
2018-02-25T10:02:40.099Z,3.32
2018-02-25T10:05:08.586Z,3.23
2018-02-25T10:07:37.078Z,3.20
2018-02-25T10:10:05.545Z,3.29
2018-02-25T10:12:34.092Z,3.34
2018-02-25T10:15:02.550Z,3.28
2018-02-25T10:17:31.066Z,3.29
2018-02-25T10:19:59.581Z,3.35
2018-02-25T10:22:28.090Z,3.22
2018-02-25T10:24:56.547Z,3.37
2018-02-25T10:27:25.049Z,3.42
2018-02-25T10:29:53.547Z,3.44
2018-02-25T10:32:22.054Z,3.43
2018-02-25T10:34:50.548Z,3.48
2018-02-25T10:37:19.009Z,3.44
2018-02-25T10:39:47.498Z,3.38
2018-02-25T10:42:15.971Z,3.30
2018-02-25T10:44:44.458Z,3.39
2018-02-25T10:47:12.919Z,3.40
2018-02-25T10:49:41.425Z,3.39
2018-02-25T10:52:09.886Z,3.32
2018-02-25T10:54:38.347Z,3.33
2018-02-25T10:57:06.846Z,3.38
2018-02-25T10:59:35.302Z,3.34
2018-02-25T11:02:03.799Z,3.24
2018-02-25T11:04:32.274Z,3.39
2018-02-25T11:07:00.787Z,3.35
2018-02-25T11:09:29.254Z,3.46
2018-02-25T11:11:57.716Z,3.41
2018-02-25T11:14:26.217Z,3.40
2018-02-25T11:16:54.678Z,3.34
2018-02-25T11:19:23.166Z,3.46
2018-02-25T11:21:51.638Z,3.65
2018-02-25T11:24:20.150Z,3.66
2018-02-25T11:26:48.605Z,3.70
2018-02-25T11:29:17.066Z,3.80
2018-02-25T11:31:45.566Z,3.80
2018-02-25T11:34:14.079Z,3.88
2018-02-25T11:36:42.579Z,3.91
2018-02-25T11:39:11.025Z,3.96
2018-02-25T11:41:39.514Z,3.97
2018-02-25T11:44:08.030Z,3.98
2018-02-25T11:46:36.541Z,3.90
2018-02-25T11:49:05.002Z,3.85
2018-02-25T11:51:33.517Z,3.91
2018-02-25T11:54:01.990Z,3.99
2018-02-25T11:56:30.448Z,3.99
2018-02-25T11:58:58.954Z,4.06
2018-02-25T12:01:27.414Z,4.08
2018-02-25T12:03:55.910Z,4.16
2018-02-25T12:06:24.384Z,4.17
2018-02-25T12:08:52.881Z,3.96
2018-02-25T12:11:21.365Z,4.12
2018-02-25T12:13:49.871Z,4.30
2018-02-25T12:16:18.329Z,4.36
2018-02-25T12:18:46.794Z,4.17
2018-02-25T12:21:15.320Z,4.20
2018-02-25T12:23:43.783Z,4.27
2018-02-25T12:26:12.278Z,4.05
2018-02-25T12:28:40.741Z,4.06
2018-02-25T12:31:09.239Z,3.97
2018-02-25T12:33:37.698Z,4.05
2018-02-25T12:36:06.158Z,4.03
2018-02-25T12:38:34.661Z,4.07
2018-02-25T12:41:03.139Z,3.98
2018-02-25T12:43:31.646Z,3.89
2018-02-25T12:46:00.106Z,3.86
2018-02-25T12:48:28.621Z,3.85
2018-02-25T12:50:57.110Z,3.80
2018-02-25T12:53:25.570Z,3.83
2018-02-25T12:55:54.066Z,3.75
2018-02-25T12:58:22.532Z,3.76
2018-02-25T13:00:51.045Z,3.68
2018-02-25T13:03:19.562Z,3.54
2018-02-25T13:05:48.050Z,3.67
2018-02-25T13:08:16.538Z,3.61
2018-02-25T13:10:45.012Z,3.63
2018-02-25T13:13:13.522Z,3.57
2018-02-25T13:15:41.986Z,3.54
2018-02-25T13:18:10.486Z,3.38
2018-02-25T13:20:38.979Z,3.32
2018-02-25T13:23:07.486Z,3.38
2018-02-25T13:25:35.962Z,3.29
2018-02-25T13:28:04.474Z,3.23
2018-02-25T13:30:32.936Z,3.36
2018-02-25T13:33:01.526Z,3.22
2018-02-25T13:35:30.026Z,3.24
2018-02-25T13:37:58.462Z,3.24
2018-02-25T13:40:26.914Z,3.17
2018-02-25T13:42:55.382Z,3.16
2018-02-25T13:45:23.838Z,3.09
2018-02-25T13:47:52.337Z,3.17
2018-02-25T13:50:20.790Z,3.16
2018-02-25T13:52:49.227Z,3.17
2018-02-25T13:55:17.716Z,3.18
2018-02-25T13:57:46.169Z,3.19
2018-02-25T14:00:14.666Z,3.08
2018-02-25T14:02:43.163Z,3.12
2018-02-25T14:05:11.607Z,3.10
2018-02-25T14:07:40.093Z,3.14
2018-02-25T14:10:08.546Z,3.12
2018-02-25T14:12:37.066Z,3.17
2018-02-25T14:15:05.522Z,3.11
2018-02-25T14:17:34.038Z,3.14
2018-02-25T14:20:02.589Z,2.91
2018-02-25T14:22:31.058Z,3.13
2018-02-25T14:24:59.550Z,3.19
2018-02-25T14:27:28.006Z,3.16
2018-02-25T14:29:56.579Z,3.12
2018-02-25T14:32:25.041Z,3.12
2018-02-25T14:34:53.506Z,3.09
2018-02-25T14:37:22.058Z,3.07
2018-02-25T14:39:50.550Z,3.12
2018-02-25T14:42:19.041Z,3.13
2018-02-25T14:44:47.512Z,3.09
2018-02-25T14:47:15.975Z,3.11
2018-02-25T14:49:44.474Z,3.13
2018-02-25T14:52:12.925Z,3.16
2018-02-25T14:54:41.428Z,3.15
2018-02-25T14:57:09.959Z,3.13
2018-02-25T14:59:38.468Z,3.09
2018-02-25T15:02:06.990Z,3.12
2018-02-25T15:04:35.435Z,3.07
2018-02-25T15:07:03.888Z,2.98
2018-02-25T15:09:32.370Z,3.01
2018-02-25T15:12:00.826Z,2.97
2018-02-25T15:14:29.330Z,3.00
2018-02-25T15:16:57.791Z,2.96
2018-02-25T15:19:26.259Z,3.00
2018-02-25T15:21:54.722Z,2.92
2018-02-25T15:24:23.223Z,3.00
2018-02-25T15:26:51.680Z,2.84
2018-02-25T15:29:20.141Z,2.94
2018-02-25T15:31:48.664Z,2.86
2018-02-25T15:34:17.129Z,2.91
2018-02-25T15:36:45.582Z,2.93
2018-02-25T15:39:14.070Z,2.94
2018-02-25T15:41:42.666Z,2.93
2018-02-25T15:44:11.126Z,2.95
2018-02-25T15:46:39.593Z,2.88
2018-02-25T15:49:08.100Z,2.83
2018-02-25T15:51:36.597Z,2.85
2018-02-25T15:54:05.062Z,2.87
2018-02-25T15:56:33.570Z,2.87
2018-02-25T15:59:02.033Z,2.81
2018-02-25T16:01:30.529Z,2.83
2018-02-25T16:03:58.994Z,2.75
2018-02-25T16:06:27.499Z,2.72
2018-02-25T16:08:56.011Z,2.77
2018-02-25T16:11:24.465Z,2.63
2018-02-25T16:13:52.926Z,2.73
2018-02-25T16:16:21.429Z,2.77
2018-02-25T16:18:49.890Z,2.74
2018-02-25T16:21:18.349Z,2.71
2018-02-25T16:23:46.861Z,2.60
2018-02-25T16:26:15.365Z,2.78
2018-02-25T16:28:43.803Z,2.71
2018-02-25T16:31:12.257Z,2.68
2018-02-25T16:33:40.728Z,2.75
2018-02-25T16:36:09.228Z,2.55
2018-02-25T16:38:37.681Z,2.72
2018-02-25T16:41:06.171Z,2.67
2018-02-25T16:43:34.660Z,2.72
2018-02-25T16:46:03.158Z,2.58
2018-02-25T16:48:31.674Z,2.68
2018-02-25T16:51:00.167Z,2.72
2018-02-25T16:53:28.627Z,2.63
2018-02-25T16:55:57.168Z,2.61
2018-02-25T16:58:25.606Z,2.52
2018-02-25T17:00:54.094Z,2.54
2018-02-25T17:03:22.572Z,2.52
2018-02-25T17:05:51.076Z,2.38
2018-02-25T17:08:19.577Z,2.42
2018-02-25T17:10:48.075Z,2.33
2018-02-25T17:13:16.567Z,2.38
2018-02-25T17:15:45.030Z,2.37
2018-02-25T17:18:13.535Z,2.28
2018-02-25T17:20:42.011Z,2.23
2018-02-25T17:23:10.510Z,2.21
2018-02-25T17:25:39.030Z,2.25
2018-02-25T17:28:07.523Z,2.26
2018-02-25T17:30:36.027Z,2.19
2018-02-25T17:33:04.530Z,2.20
2018-02-25T17:35:32.982Z,2.20
2018-02-25T17:38:01.822Z,2.19
2018-02-25T17:40:30.299Z,2.15
2018-02-25T17:42:58.756Z,2.13
2018-02-25T17:45:27.242Z,2.15
2018-02-25T17:47:55.727Z,1.90
2018-02-25T17:50:24.178Z,2.02
2018-02-25T17:52:52.634Z,2.05
2018-02-25T17:55:24.520Z,2.11
2018-02-25T17:57:49.618Z,2.03
2018-02-25T18:00:18.142Z,2.01
2018-02-25T18:02:46.606Z,1.98
2018-02-25T18:05:15.106Z,1.91
2018-02-25T18:07:43.559Z,1.82
2018-02-25T18:10:12.021Z,1.69
2018-02-25T18:12:40.535Z,1.75
2018-02-25T18:15:09.006Z,1.71
2018-02-25T18:17:37.499Z,1.70
2018-02-25T18:20:05.961Z,1.79
2018-02-25T18:22:34.472Z,1.75
2018-02-25T18:25:02.982Z,1.68
2018-02-25T18:27:31.442Z,1.67
2018-02-25T18:29:59.944Z,1.59
2018-02-25T18:32:28.465Z,1.57
2018-02-25T18:34:56.928Z,1.57
2018-02-25T18:37:25.429Z,1.49
2018-02-25T18:39:53.886Z,1.42
2018-02-25T18:42:22.398Z,1.49
2018-02-25T18:44:50.851Z,1.38
2018-02-25T18:47:19.309Z,1.36
2018-02-25T18:49:47.802Z,1.41
2018-02-25T18:52:16.274Z,1.37
2018-02-25T18:54:44.770Z,1.41
2018-02-25T18:57:13.278Z,1.38
2018-02-25T18:59:41.806Z,1.55
2018-02-25T19:02:10.302Z,1.55
2018-02-25T19:04:38.821Z,1.59
2018-02-25T19:07:07.281Z,1.53
2018-02-25T19:09:35.734Z,1.37
2018-02-25T19:12:04.233Z,1.31
2018-02-25T19:14:32.704Z,1.18
2018-02-25T19:17:01.204Z,1.15
2018-02-25T19:19:29.714Z,1.10
2018-02-25T19:21:58.213Z,1.12
2018-02-25T19:24:26.670Z,1.06
2018-02-25T19:26:55.142Z,1.00
2018-02-25T19:29:23.656Z,0.89
2018-02-25T19:31:52.128Z,0.85
2018-02-25T19:34:20.654Z,0.85
2018-02-25T19:36:54.527Z,0.75
2018-02-25T19:39:28.479Z,0.65
2018-02-25T19:41:56.932Z,0.72
2018-02-25T19:44:25.445Z,0.58
2018-02-25T19:46:53.952Z,0.64
2018-02-25T19:49:22.458Z,0.49
2018-02-25T19:51:51.042Z,0.60
2018-02-25T19:54:19.537Z,0.65
2018-02-25T19:56:48.038Z,0.60
2018-02-25T19:59:16.506Z,0.66
2018-02-25T20:01:44.973Z,0.59
2018-02-25T20:04:13.470Z,0.65
2018-02-25T20:06:41.962Z,0.58
2018-02-25T20:09:10.430Z,0.60
2018-02-25T20:11:38.926Z,0.56
2018-02-25T20:14:07.387Z,0.58
2018-02-25T20:16:35.882Z,0.55
2018-02-25T20:19:04.343Z,0.52
2018-02-25T20:21:32.872Z,0.32
2018-02-25T20:24:01.379Z,0.37
2018-02-25T20:26:29.854Z,0.46
2018-02-25T20:28:58.342Z,0.39
2018-02-25T20:31:26.801Z,0.33
2018-02-25T20:33:55.329Z,0.26
2018-02-25T20:36:23.834Z,0.26
2018-02-25T20:38:52.363Z,0.25
2018-02-25T20:41:20.866Z,0.07
2018-02-25T20:43:49.318Z,0.20
2018-02-25T20:46:17.857Z,0.14
2018-02-25T20:48:46.368Z,0.16
2018-02-25T20:51:14.847Z,0.09
2018-02-25T20:53:43.342Z,0.09
2018-02-25T20:56:11.802Z,0.05
2018-02-25T20:58:40.299Z,0.00
2018-02-25T21:01:08.758Z,-0.07
2018-02-25T21:03:37.272Z,-0.10
2018-02-25T21:06:05.773Z,-0.21
2018-02-25T21:08:34.245Z,-0.13
2018-02-25T21:11:02.747Z,-0.13
2018-02-25T21:13:31.210Z,-0.02
2018-02-25T21:15:59.790Z,0.01
2018-02-25T21:18:28.301Z,-0.02
2018-02-25T21:20:56.811Z,0.05
2018-02-25T21:23:25.319Z,-0.17
2018-02-25T21:25:53.847Z,-0.07
2018-02-25T21:28:22.310Z,-0.03
2018-02-25T21:30:50.790Z,-0.13
2018-02-25T21:33:19.298Z,-0.09
2018-02-25T21:35:47.758Z,-0.07
2018-02-25T21:38:16.258Z,-0.11
2018-02-25T21:40:44.707Z,-0.12
2018-02-25T21:43:13.222Z,-0.11
2018-02-25T21:45:41.722Z,-0.11
2018-02-25T21:48:10.182Z,-0.21
2018-02-25T21:50:38.690Z,-0.22
2018-02-25T21:53:07.170Z,-0.25
2018-02-25T21:55:36.458Z,-0.29
2018-02-25T21:58:10.410Z,-0.28
2018-02-25T22:00:44.510Z,-0.23
2018-02-25T22:06:06.129Z,-0.25
2018-02-25T22:08:34.594Z,-0.32
2018-02-25T22:11:03.128Z,-0.29
2018-02-25T22:13:31.634Z,-0.28
2018-02-25T22:16:00.147Z,-0.24
2018-02-25T22:18:28.685Z,-0.23
2018-02-25T22:20:57.182Z,-0.14
2018-02-25T22:23:25.694Z,-0.18
2018-02-25T22:25:54.154Z,-0.18
2018-02-25T22:28:22.614Z,-0.22
2018-02-25T22:30:51.110Z,-0.18
2018-02-25T22:33:19.606Z,-0.12
2018-02-25T22:35:48.105Z,-0.10
2018-02-25T22:38:16.608Z,-0.13
2018-02-25T22:40:45.106Z,-0.10
2018-02-25T22:43:13.606Z,-0.09
2018-02-25T22:45:42.069Z,-0.07
2018-02-25T22:48:10.594Z,-0.05
2018-02-25T22:50:39.069Z,-0.12
2018-02-25T22:53:07.530Z,-0.22
2018-02-25T22:55:36.030Z,-0.15
2018-02-25T22:58:04.526Z,-0.16
2018-02-25T23:00:32.995Z,-0.30
2018-02-25T23:03:01.517Z,-0.16
2018-02-25T23:05:30.026Z,-0.03
2018-02-25T23:07:58.529Z,0.04
2018-02-25T23:10:26.990Z,0.01
2018-02-25T23:12:55.455Z,0.10
2018-02-25T23:15:23.943Z,-0.08
2018-02-25T23:17:52.418Z,0.02
2018-02-25T23:20:20.926Z,0.00
2018-02-25T23:22:49.400Z,-0.08
2018-02-25T23:25:17.871Z,-0.15
2018-02-25T23:27:46.385Z,-0.15
2018-02-25T23:30:14.849Z,-0.15
2018-02-25T23:32:43.325Z,-0.21
2018-02-25T23:35:11.830Z,-0.04
2018-02-25T23:37:40.296Z,-0.05
2018-02-25T23:40:08.797Z,-0.08
2018-02-25T23:42:37.306Z,-0.16
2018-02-25T23:45:05.830Z,-0.23
2018-02-25T23:47:34.334Z,-0.16
2018-02-25T23:50:02.802Z,-0.16
2018-02-25T23:52:31.306Z,-0.01
2018-02-25T23:54:59.834Z,-0.03
2018-02-25T23:57:28.310Z,0.10
2018-02-25T23:59:56.756Z,0.18
